sensor_id;sensor_type;location;lat;lon;timestamp;P1;durP1;ratioP1;P2;durP2;ratioP2
11596;SDS011;5854;48.072;16.286;2024-03-23T00:54:14;2.47;;;1.58;;
11596;SDS011;5854;48.072;16.286;2024-03-23T00:56:41;2.25;;;1.50;;
11596;SDS011;5854;48.072;16.286;2024-03-23T00:59:08;1.38;;;1.27;;
11596;SDS011;5854;48.072;16.286;2024-03-23T01:01:35;9.25;;;1.52;;
11596;SDS011;5854;48.072;16.286;2024-03-23T01:04:01;2.70;;;1.65;;
11596;SDS011;5854;48.072;16.286;2024-03-23T01:06:29;3.47;;;1.60;;
11596;SDS011;5854;48.072;16.286;2024-03-23T01:08:56;3.78;;;1.45;;
11596;SDS011;5854;48.072;16.286;2024-03-23T01:11:24;2.20;;;1.58;;
11596;SDS011;5854;48.072;16.286;2024-03-23T01:13:53;2.80;;;1.63;;
11596;SDS011;5854;48.072;16.286;2024-03-23T01:16:21;3.55;;;1.70;;
11596;SDS011;5854;48.072;16.286;2024-03-23T01:18:47;3.67;;;1.67;;
11596;SDS011;5854;48.072;16.286;2024-03-23T01:21:14;5.72;;;1.60;;
11596;SDS011;5854;48.072;16.286;2024-03-23T01:23:40;1.30;;;1.20;;
11596;SDS011;5854;48.072;16.286;2024-03-23T01:26:08;3.15;;;1.55;;
11596;SDS011;5854;48.072;16.286;2024-03-23T01:28:36;1.40;;;1.30;;
11596;SDS011;5854;48.072;16.286;2024-03-23T01:31:03;1.58;;;1.48;;
11596;SDS011;5854;48.072;16.286;2024-03-23T01:33:29;2.20;;;1.50;;
11596;SDS011;5854;48.072;16.286;2024-03-23T01:35:56;4.57;;;1.42;;
11596;SDS011;5854;48.072;16.286;2024-03-23T01:38:23;4.95;;;1.40;;
11596;SDS011;5854;48.072;16.286;2024-03-23T01:40:55;1.95;;;1.75;;
11596;SDS011;5854;48.072;16.286;2024-03-23T01:43:22;3.65;;;1.35;;
11596;SDS011;5854;48.072;16.286;2024-03-23T01:45:51;4.97;;;2.20;;
11596;SDS011;5854;48.072;16.286;2024-03-23T01:48:19;9.82;;;1.60;;
11596;SDS011;5854;48.072;16.286;2024-03-23T01:50:46;1.80;;;1.70;;
11596;SDS011;5854;48.072;16.286;2024-03-23T01:53:13;1.67;;;1.50;;
11596;SDS011;5854;48.072;16.286;2024-03-23T01:55:42;3.35;;;1.50;;
11596;SDS011;5854;48.072;16.286;2024-03-23T01:58:09;2.63;;;1.50;;
11596;SDS011;5854;48.072;16.286;2024-03-23T02:00:36;12.20;;;2.38;;
11596;SDS011;5854;48.072;16.286;2024-03-23T02:03:06;2.63;;;1.70;;
11596;SDS011;5854;48.072;16.286;2024-03-23T02:05:49;3.05;;;1.30;;
11596;SDS011;5854;48.072;16.286;2024-03-23T02:08:16;1.92;;;1.17;;
11596;SDS011;5854;48.072;16.286;2024-03-23T02:10:44;1.42;;;1.33;;
11596;SDS011;5854;48.072;16.286;2024-03-23T02:13:10;2.15;;;1.25;;
11596;SDS011;5854;48.072;16.286;2024-03-23T02:15:39;1.77;;;1.67;;
11596;SDS011;5854;48.072;16.286;2024-03-23T02:18:06;2.25;;;1.35;;
11596;SDS011;5854;48.072;16.286;2024-03-23T02:20:34;4.20;;;1.35;;
11596;SDS011;5854;48.072;16.286;2024-03-23T02:23:02;2.10;;;1.60;;
11596;SDS011;5854;48.072;16.286;2024-03-23T02:25:31;1.55;;;1.27;;
11596;SDS011;5854;48.072;16.286;2024-03-23T02:27:57;1.90;;;1.42;;
11596;SDS011;5854;48.072;16.286;2024-03-23T02:30:24;3.17;;;1.75;;
11596;SDS011;5854;48.072;16.286;2024-03-23T02:32:51;1.70;;;1.30;;
11596;SDS011;5854;48.072;16.286;2024-03-23T02:35:18;4.75;;;1.27;;
11596;SDS011;5854;48.072;16.286;2024-03-23T02:37:45;1.63;;;1.52;;
11596;SDS011;5854;48.072;16.286;2024-03-23T02:40:15;2.25;;;1.33;;
11596;SDS011;5854;48.072;16.286;2024-03-23T02:42:41;1.13;;;1.02;;
11596;SDS011;5854;48.072;16.286;2024-03-23T02:45:09;1.25;;;1.15;;
11596;SDS011;5854;48.072;16.286;2024-03-23T02:47:35;5.55;;;1.10;;
11596;SDS011;5854;48.072;16.286;2024-03-23T02:50:03;4.00;;;1.85;;
11596;SDS011;5854;48.072;16.286;2024-03-23T02:52:30;2.35;;;1.50;;
11596;SDS011;5854;48.072;16.286;2024-03-23T02:54:57;1.67;;;1.58;;
11596;SDS011;5854;48.072;16.286;2024-03-23T02:57:25;2.25;;;1.27;;
11596;SDS011;5854;48.072;16.286;2024-03-23T02:59:52;1.75;;;1.35;;
11596;SDS011;5854;48.072;16.286;2024-03-23T03:02:19;3.75;;;1.40;;
11596;SDS011;5854;48.072;16.286;2024-03-23T03:04:47;4.93;;;1.40;;
11596;SDS011;5854;48.072;16.286;2024-03-23T03:07:13;3.17;;;1.30;;
11596;SDS011;5854;48.072;16.286;2024-03-23T03:09:41;1.65;;;1.25;;
11596;SDS011;5854;48.072;16.286;2024-03-23T03:12:07;1.30;;;1.20;;
11596;SDS011;5854;48.072;16.286;2024-03-23T03:14:36;1.48;;;1.17;;
11596;SDS011;5854;48.072;16.286;2024-03-23T03:17:02;1.48;;;1.23;;
11596;SDS011;5854;48.072;16.286;2024-03-23T03:19:30;1.35;;;1.25;;
11596;SDS011;5854;48.072;16.286;2024-03-23T03:21:57;1.50;;;1.33;;
11596;SDS011;5854;48.072;16.286;2024-03-23T03:24:24;1.75;;;1.50;;
11596;SDS011;5854;48.072;16.286;2024-03-23T03:26:51;3.15;;;1.10;;
11596;SDS011;5854;48.072;16.286;2024-03-23T03:29:18;1.30;;;1.20;;
11596;SDS011;5854;48.072;16.286;2024-03-23T03:31:46;6.60;;;1.80;;
11596;SDS011;5854;48.072;16.286;2024-03-23T03:34:15;1.92;;;1.45;;
11596;SDS011;5854;48.072;16.286;2024-03-23T03:36:41;1.67;;;1.42;;
11596;SDS011;5854;48.072;16.286;2024-03-23T03:39:08;1.63;;;1.30;;
11596;SDS011;5854;48.072;16.286;2024-03-23T03:41:35;1.45;;;1.35;;
11596;SDS011;5854;48.072;16.286;2024-03-23T03:44:02;1.83;;;1.48;;
11596;SDS011;5854;48.072;16.286;2024-03-23T03:46:28;1.50;;;1.35;;
11596;SDS011;5854;48.072;16.286;2024-03-23T03:48:57;2.08;;;1.70;;
11596;SDS011;5854;48.072;16.286;2024-03-23T03:51:23;5.38;;;1.60;;
11596;SDS011;5854;48.072;16.286;2024-03-23T03:53:50;1.70;;;1.60;;
11596;SDS011;5854;48.072;16.286;2024-03-23T03:56:17;2.20;;;2.00;;
11596;SDS011;5854;48.072;16.286;2024-03-23T03:58:44;2.05;;;1.90;;
11596;SDS011;5854;48.072;16.286;2024-03-23T04:01:11;1.70;;;1.60;;
11596;SDS011;5854;48.072;16.286;2024-03-23T04:03:38;2.00;;;1.80;;
11596;SDS011;5854;48.072;16.286;2024-03-23T04:06:10;1.50;;;1.40;;
11596;SDS011;5854;48.072;16.286;2024-03-23T04:08:37;2.80;;;1.50;;
11596;SDS011;5854;48.072;16.286;2024-03-23T04:11:03;2.35;;;1.83;;
11596;SDS011;5854;48.072;16.286;2024-03-23T04:13:30;3.28;;;1.70;;
11596;SDS011;5854;48.072;16.286;2024-03-23T04:15:57;3.13;;;1.80;;
11596;SDS011;5854;48.072;16.286;2024-03-23T04:18:24;3.25;;;1.60;;
11596;SDS011;5854;48.072;16.286;2024-03-23T04:20:51;1.90;;;1.42;;
11596;SDS011;5854;48.072;16.286;2024-03-23T04:23:20;2.03;;;1.70;;
11596;SDS011;5854;48.072;16.286;2024-03-23T04:25:46;2.17;;;1.33;;
11596;SDS011;5854;48.072;16.286;2024-03-23T04:28:13;2.20;;;2.00;;
11596;SDS011;5854;48.072;16.286;2024-03-23T04:30:39;1.80;;;1.70;;
11596;SDS011;5854;48.072;16.286;2024-03-23T04:33:07;1.73;;;1.60;;
11596;SDS011;5854;48.072;16.286;2024-03-23T04:35:33;2.80;;;1.58;;
11596;SDS011;5854;48.072;16.286;2024-03-23T04:38:01;3.25;;;1.35;;
11596;SDS011;5854;48.072;16.286;2024-03-23T04:40:30;3.25;;;1.60;;
11596;SDS011;5854;48.072;16.286;2024-03-23T04:42:56;1.55;;;1.45;;
11596;SDS011;5854;48.072;16.286;2024-03-23T04:45:23;6.78;;;1.52;;
11596;SDS011;5854;48.072;16.286;2024-03-23T04:47:50;1.48;;;1.25;;
11596;SDS011;5854;48.072;16.286;2024-03-23T04:50:21;1.65;;;1.30;;
11596;SDS011;5854;48.072;16.286;2024-03-23T04:52:48;2.42;;;1.30;;
11596;SDS011;5854;48.072;16.286;2024-03-23T04:55:15;2.03;;;1.30;;
11596;SDS011;5854;48.072;16.286;2024-03-23T04:57:44;2.10;;;1.60;;
11596;SDS011;5854;48.072;16.286;2024-03-23T05:00:11;1.70;;;1.60;;
11596;SDS011;5854;48.072;16.286;2024-03-23T05:02:43;1.60;;;1.50;;
11596;SDS011;5854;48.072;16.286;2024-03-23T05:05:11;5.20;;;1.50;;
11596;SDS011;5854;48.072;16.286;2024-03-23T05:07:39;1.45;;;1.33;;
11596;SDS011;5854;48.072;16.286;2024-03-23T05:10:07;2.05;;;1.58;;
11596;SDS011;5854;48.072;16.286;2024-03-23T05:12:36;1.58;;;1.48;;
11596;SDS011;5854;48.072;16.286;2024-03-23T05:15:04;2.63;;;1.77;;
11596;SDS011;5854;48.072;16.286;2024-03-23T05:17:32;1.23;;;1.13;;
11596;SDS011;5854;48.072;16.286;2024-03-23T05:19:59;1.98;;;1.52;;
11596;SDS011;5854;48.072;16.286;2024-03-23T05:22:26;6.70;;;1.55;;
11596;SDS011;5854;48.072;16.286;2024-03-23T05:24:52;1.80;;;1.70;;
11596;SDS011;5854;48.072;16.286;2024-03-23T05:27:20;1.45;;;1.35;;
11596;SDS011;5854;48.072;16.286;2024-03-23T05:29:48;1.38;;;1.27;;
11596;SDS011;5854;48.072;16.286;2024-03-23T05:32:16;2.28;;;1.55;;
11596;SDS011;5854;48.072;16.286;2024-03-23T05:34:43;2.60;;;1.50;;
11596;SDS011;5854;48.072;16.286;2024-03-23T05:37:11;5.45;;;1.70;;
11596;SDS011;5854;48.072;16.286;2024-03-23T05:39:37;1.77;;;1.67;;
11596;SDS011;5854;48.072;16.286;2024-03-23T05:42:05;1.95;;;1.45;;
11596;SDS011;5854;48.072;16.286;2024-03-23T05:44:31;2.30;;;1.80;;
11596;SDS011;5854;48.072;16.286;2024-03-23T05:46:58;1.48;;;1.38;;
11596;SDS011;5854;48.072;16.286;2024-03-23T05:49:26;2.10;;;1.50;;
11596;SDS011;5854;48.072;16.286;2024-03-23T05:51:53;1.98;;;1.65;;
11596;SDS011;5854;48.072;16.286;2024-03-23T05:54:20;1.90;;;1.40;;
11596;SDS011;5854;48.072;16.286;2024-03-23T05:56:47;5.22;;;1.45;;
11596;SDS011;5854;48.072;16.286;2024-03-23T05:59:14;5.20;;;1.63;;
11596;SDS011;5854;48.072;16.286;2024-03-23T06:01:41;3.20;;;1.83;;
11596;SDS011;5854;48.072;16.286;2024-03-23T06:04:07;6.53;;;2.10;;
11596;SDS011;5854;48.072;16.286;2024-03-23T06:06:36;3.72;;;1.35;;
11596;SDS011;5854;48.072;16.286;2024-03-23T06:09:02;2.08;;;1.70;;
11596;SDS011;5854;48.072;16.286;2024-03-23T06:11:29;2.13;;;1.42;;
11596;SDS011;5854;48.072;16.286;2024-03-23T06:13:55;2.05;;;1.52;;
11596;SDS011;5854;48.072;16.286;2024-03-23T06:16:23;2.00;;;1.65;;
11596;SDS011;5854;48.072;16.286;2024-03-23T06:18:49;1.98;;;1.70;;
11596;SDS011;5854;48.072;16.286;2024-03-23T06:21:17;1.98;;;1.48;;
11596;SDS011;5854;48.072;16.286;2024-03-23T06:23:45;1.42;;;1.33;;
11596;SDS011;5854;48.072;16.286;2024-03-23T06:26:16;5.03;;;1.50;;
11596;SDS011;5854;48.072;16.286;2024-03-23T06:28:42;1.42;;;1.33;;
11596;SDS011;5854;48.072;16.286;2024-03-23T06:31:10;2.38;;;1.95;;
11596;SDS011;5854;48.072;16.286;2024-03-23T06:33:37;1.80;;;1.70;;
11596;SDS011;5854;48.072;16.286;2024-03-23T06:36:05;2.00;;;1.90;;
11596;SDS011;5854;48.072;16.286;2024-03-23T06:38:34;2.05;;;1.95;;
11596;SDS011;5854;48.072;16.286;2024-03-23T06:41:03;2.45;;;2.03;;
11596;SDS011;5854;48.072;16.286;2024-03-23T06:43:30;2.13;;;1.92;;
11596;SDS011;5854;48.072;16.286;2024-03-23T06:45:57;1.77;;;1.67;;
11596;SDS011;5854;48.072;16.286;2024-03-23T06:48:24;3.10;;;1.98;;
11596;SDS011;5854;48.072;16.286;2024-03-23T06:50:55;1.77;;;1.67;;
11596;SDS011;5854;48.072;16.286;2024-03-23T06:53:22;2.77;;;1.97;;
11596;SDS011;5854;48.072;16.286;2024-03-23T06:55:50;3.63;;;3.03;;
11596;SDS011;5854;48.072;16.286;2024-03-23T06:58:19;2.80;;;2.25;;
11596;SDS011;5854;48.072;16.286;2024-03-23T07:00:47;6.40;;;2.75;;
11596;SDS011;5854;48.072;16.286;2024-03-23T07:03:14;2.72;;;2.03;;
11596;SDS011;5854;48.072;16.286;2024-03-23T07:05:42;4.68;;;2.80;;
11596;SDS011;5854;48.072;16.286;2024-03-23T07:08:08;3.85;;;3.13;;
11596;SDS011;5854;48.072;16.286;2024-03-23T07:10:38;4.28;;;2.92;;
11596;SDS011;5854;48.072;16.286;2024-03-23T07:13:05;3.05;;;2.75;;
11596;SDS011;5854;48.072;16.286;2024-03-23T07:15:34;2.95;;;2.60;;
11596;SDS011;5854;48.072;16.286;2024-03-23T07:18:00;3.50;;;3.20;;
11596;SDS011;5854;48.072;16.286;2024-03-23T07:20:28;3.53;;;3.22;;
11596;SDS011;5854;48.072;16.286;2024-03-23T07:22:55;5.43;;;3.50;;
11596;SDS011;5854;48.072;16.286;2024-03-23T07:25:23;4.93;;;4.43;;
11596;SDS011;5854;48.072;16.286;2024-03-23T07:27:50;10.25;;;4.70;;
11596;SDS011;5854;48.072;16.286;2024-03-23T07:30:19;5.78;;;4.75;;
11596;SDS011;5854;48.072;16.286;2024-03-23T07:32:47;6.78;;;6.18;;
11596;SDS011;5854;48.072;16.286;2024-03-23T07:35:14;5.97;;;5.47;;
11596;SDS011;5854;48.072;16.286;2024-03-23T07:37:41;7.97;;;6.63;;
11596;SDS011;5854;48.072;16.286;2024-03-23T07:40:09;12.57;;;6.45;;
11596;SDS011;5854;48.072;16.286;2024-03-23T07:42:37;7.07;;;6.32;;
11596;SDS011;5854;48.072;16.286;2024-03-23T07:45:04;10.48;;;6.00;;
11596;SDS011;5854;48.072;16.286;2024-03-23T07:47:31;8.13;;;6.22;;
11596;SDS011;5854;48.072;16.286;2024-03-23T07:50:00;7.22;;;6.05;;
11596;SDS011;5854;48.072;16.286;2024-03-23T07:52:27;11.95;;;6.10;;
11596;SDS011;5854;48.072;16.286;2024-03-23T07:54:55;11.02;;;6.55;;
11596;SDS011;5854;48.072;16.286;2024-03-23T07:57:21;7.45;;;5.60;;
11596;SDS011;5854;48.072;16.286;2024-03-23T07:59:48;8.40;;;6.22;;
11596;SDS011;5854;48.072;16.286;2024-03-23T08:02:17;8.18;;;5.68;;
11596;SDS011;5854;48.072;16.286;2024-03-23T08:04:43;8.63;;;6.20;;
11596;SDS011;5854;48.072;16.286;2024-03-23T08:07:12;6.82;;;5.53;;
11596;SDS011;5854;48.072;16.286;2024-03-23T08:09:38;5.30;;;4.90;;
11596;SDS011;5854;48.072;16.286;2024-03-23T08:12:05;4.10;;;3.80;;
11596;SDS011;5854;48.072;16.286;2024-03-23T08:14:32;3.42;;;3.13;;
11596;SDS011;5854;48.072;16.286;2024-03-23T08:16:59;4.65;;;4.10;;
11596;SDS011;5854;48.072;16.286;2024-03-23T08:19:25;11.68;;;4.50;;
11596;SDS011;5854;48.072;16.286;2024-03-23T08:21:53;12.30;;;5.07;;
11596;SDS011;5854;48.072;16.286;2024-03-23T08:24:21;29.02;;;6.22;;
11596;SDS011;5854;48.072;16.286;2024-03-23T08:26:48;30.08;;;5.30;;
11596;SDS011;5854;48.072;16.286;2024-03-23T08:29:14;34.65;;;5.40;;
11596;SDS011;5854;48.072;16.286;2024-03-23T08:31:42;45.10;;;6.07;;
11596;SDS011;5854;48.072;16.286;2024-03-23T08:34:08;15.07;;;3.85;;
11596;SDS011;5854;48.072;16.286;2024-03-23T08:36:35;3.67;;;3.38;;
11596;SDS011;5854;48.072;16.286;2024-03-23T08:39:02;2.45;;;2.22;;
11596;SDS011;5854;48.072;16.286;2024-03-23T08:41:30;3.20;;;2.65;;
11596;SDS011;5854;48.072;16.286;2024-03-23T08:43:57;9.38;;;3.13;;
11596;SDS011;5854;48.072;16.286;2024-03-23T08:46:24;7.65;;;2.15;;
11596;SDS011;5854;48.072;16.286;2024-03-23T08:48:50;2.55;;;2.15;;
11596;SDS011;5854;48.072;16.286;2024-03-23T08:51:18;4.80;;;2.70;;
11596;SDS011;5854;48.072;16.286;2024-03-23T08:53:46;4.57;;;2.10;;
11596;SDS011;5854;48.072;16.286;2024-03-23T08:56:13;5.97;;;1.52;;
11596;SDS011;5854;48.072;16.286;2024-03-23T08:58:42;5.03;;;1.60;;
11596;SDS011;5854;48.072;16.286;2024-03-23T09:01:10;2.58;;;1.15;;
11596;SDS011;5854;48.072;16.286;2024-03-23T09:03:38;3.00;;;1.85;;
11596;SDS011;5854;48.072;16.286;2024-03-23T09:06:06;2.38;;;1.95;;
11596;SDS011;5854;48.072;16.286;2024-03-23T09:08:33;2.28;;;1.90;;
11596;SDS011;5854;48.072;16.286;2024-03-23T09:11:03;1.92;;;1.73;;
11596;SDS011;5854;48.072;16.286;2024-03-23T09:13:31;3.35;;;1.25;;
11596;SDS011;5854;48.072;16.286;2024-03-23T09:16:00;4.72;;;1.83;;
11596;SDS011;5854;48.072;16.286;2024-03-23T09:18:27;3.78;;;1.73;;
11596;SDS011;5854;48.072;16.286;2024-03-23T09:20:54;1.05;;;0.98;;
11596;SDS011;5854;48.072;16.286;2024-03-23T09:23:22;3.65;;;1.90;;
11596;SDS011;5854;48.072;16.286;2024-03-23T09:25:49;2.65;;;1.67;;
11596;SDS011;5854;48.072;16.286;2024-03-23T09:28:15;2.90;;;1.63;;
11596;SDS011;5854;48.072;16.286;2024-03-23T09:30:42;1.50;;;1.20;;
11596;SDS011;5854;48.072;16.286;2024-03-23T09:33:10;1.30;;;1.17;;
11596;SDS011;5854;48.072;16.286;2024-03-23T09:35:38;1.23;;;1.02;;
11596;SDS011;5854;48.072;16.286;2024-03-23T09:38:05;1.20;;;0.85;;
11596;SDS011;5854;48.072;16.286;2024-03-23T09:40:34;2.63;;;0.77;;
11596;SDS011;5854;48.072;16.286;2024-03-23T09:43:05;1.73;;;1.00;;
11596;SDS011;5854;48.072;16.286;2024-03-23T09:45:34;7.90;;;0.93;;
11596;SDS011;5854;48.072;16.286;2024-03-23T09:48:04;0.95;;;0.80;;
11596;SDS011;5854;48.072;16.286;2024-03-23T09:50:36;2.67;;;1.00;;
11596;SDS011;5854;48.072;16.286;2024-03-23T09:53:03;3.42;;;1.13;;
11596;SDS011;5854;48.072;16.286;2024-03-23T09:55:30;2.80;;;0.70;;
11596;SDS011;5854;48.072;16.286;2024-03-23T09:57:57;5.20;;;0.88;;
11596;SDS011;5854;48.072;16.286;2024-03-23T10:00:24;2.08;;;0.60;;
11596;SDS011;5854;48.072;16.286;2024-03-23T10:02:50;0.93;;;0.82;;
11596;SDS011;5854;48.072;16.286;2024-03-23T10:05:22;0.70;;;0.70;;
11596;SDS011;5854;48.072;16.286;2024-03-23T10:07:49;9.65;;;0.77;;
11596;SDS011;5854;48.072;16.286;2024-03-23T10:10:17;0.95;;;0.80;;
11596;SDS011;5854;48.072;16.286;2024-03-23T10:12:44;1.02;;;0.75;;
11596;SDS011;5854;48.072;16.286;2024-03-23T10:15:17;1.13;;;0.73;;
11596;SDS011;5854;48.072;16.286;2024-03-23T10:17:45;0.45;;;0.45;;
11596;SDS011;5854;48.072;16.286;2024-03-23T10:20:12;0.75;;;0.70;;
11596;SDS011;5854;48.072;16.286;2024-03-23T10:22:45;0.55;;;0.47;;
11596;SDS011;5854;48.072;16.286;2024-03-23T10:25:13;3.05;;;0.52;;
11596;SDS011;5854;48.072;16.286;2024-03-23T10:27:40;2.20;;;0.63;;
11596;SDS011;5854;48.072;16.286;2024-03-23T10:30:08;0.55;;;0.47;;
11596;SDS011;5854;48.072;16.286;2024-03-23T10:32:37;0.75;;;0.40;;
11596;SDS011;5854;48.072;16.286;2024-03-23T10:35:14;0.85;;;0.60;;
11596;SDS011;5854;48.072;16.286;2024-03-23T10:37:43;1.23;;;0.60;;
11596;SDS011;5854;48.072;16.286;2024-03-23T10:40:14;4.85;;;1.00;;
11596;SDS011;5854;48.072;16.286;2024-03-23T10:42:43;1.00;;;0.55;;
11596;SDS011;5854;48.072;16.286;2024-03-23T10:45:10;0.77;;;0.65;;
11596;SDS011;5854;48.072;16.286;2024-03-23T10:47:37;1.52;;;1.00;;
11596;SDS011;5854;48.072;16.286;2024-03-23T10:50:04;0.57;;;0.40;;
11596;SDS011;5854;48.072;16.286;2024-03-23T10:52:32;6.50;;;0.80;;
11596;SDS011;5854;48.072;16.286;2024-03-23T10:55:00;0.70;;;0.68;;
11596;SDS011;5854;48.072;16.286;2024-03-23T10:57:31;1.70;;;1.27;;
11596;SDS011;5854;48.072;16.286;2024-03-23T11:00:04;1.67;;;0.60;;
11596;SDS011;5854;48.072;16.286;2024-03-23T11:02:32;2.78;;;1.42;;
11596;SDS011;5854;48.072;16.286;2024-03-23T11:04:59;3.70;;;0.93;;
11596;SDS011;5854;48.072;16.286;2024-03-23T11:07:30;1.40;;;0.52;;
11596;SDS011;5854;48.072;16.286;2024-03-23T11:09:57;3.92;;;1.33;;
11596;SDS011;5854;48.072;16.286;2024-03-23T11:12:28;1.27;;;0.47;;
11596;SDS011;5854;48.072;16.286;2024-03-23T11:14:58;1.27;;;0.70;;
11596;SDS011;5854;48.072;16.286;2024-03-23T11:17:28;1.08;;;0.80;;
11596;SDS011;5854;48.072;16.286;2024-03-23T11:19:55;2.70;;;0.80;;
11596;SDS011;5854;48.072;16.286;2024-03-23T11:22:39;0.95;;;0.80;;
11596;SDS011;5854;48.072;16.286;2024-03-23T11:25:19;0.50;;;0.50;;
11596;SDS011;5854;48.072;16.286;2024-03-23T11:27:49;0.50;;;0.50;;
11596;SDS011;5854;48.072;16.286;2024-03-23T11:30:17;2.40;;;0.90;;
11596;SDS011;5854;48.072;16.286;2024-03-23T11:32:47;1.00;;;0.77;;
11596;SDS011;5854;48.072;16.286;2024-03-23T11:35:27;2.05;;;0.80;;
11596;SDS011;5854;48.072;16.286;2024-03-23T11:38:04;1.00;;;0.90;;
11596;SDS011;5854;48.072;16.286;2024-03-23T11:40:36;0.90;;;0.70;;
11596;SDS011;5854;48.072;16.286;2024-03-23T11:43:05;0.52;;;0.50;;
11596;SDS011;5854;48.072;16.286;2024-03-23T11:45:36;0.77;;;0.65;;
11596;SDS011;5854;48.072;16.286;2024-03-23T11:48:05;0.73;;;0.57;;
11596;SDS011;5854;48.072;16.286;2024-03-23T11:50:34;1.45;;;1.05;;
11596;SDS011;5854;48.072;16.286;2024-03-23T11:53:09;0.55;;;0.50;;
11596;SDS011;5854;48.072;16.286;2024-03-23T11:55:45;0.75;;;0.55;;
11596;SDS011;5854;48.072;16.286;2024-03-23T11:58:13;1.15;;;0.63;;
11596;SDS011;5854;48.072;16.286;2024-03-23T12:00:40;1.55;;;0.80;;
11596;SDS011;5854;48.072;16.286;2024-03-23T12:03:08;6.07;;;0.60;;
11596;SDS011;5854;48.072;16.286;2024-03-23T12:05:35;0.60;;;0.52;;
11596;SDS011;5854;48.072;16.286;2024-03-23T12:08:18;1.10;;;0.65;;
11596;SDS011;5854;48.072;16.286;2024-03-23T12:13:17;2.97;;;0.60;;
11596;SDS011;5854;48.072;16.286;2024-03-23T12:15:45;2.90;;;1.05;;
11596;SDS011;5854;48.072;16.286;2024-03-23T12:18:13;8.90;;;0.80;;
11596;SDS011;5854;48.072;16.286;2024-03-23T12:20:39;4.80;;;0.80;;
11596;SDS011;5854;48.072;16.286;2024-03-23T12:23:08;2.97;;;1.20;;
11596;SDS011;5854;48.072;16.286;2024-03-23T12:25:36;3.13;;;0.98;;
11596;SDS011;5854;48.072;16.286;2024-03-23T12:28:06;3.13;;;1.08;;
11596;SDS011;5854;48.072;16.286;2024-03-23T12:30:33;6.00;;;1.42;;
11596;SDS011;5854;48.072;16.286;2024-03-23T12:33:02;4.72;;;1.38;;
11596;SDS011;5854;48.072;16.286;2024-03-23T12:35:29;9.30;;;1.63;;
11596;SDS011;5854;48.072;16.286;2024-03-23T12:37:56;5.57;;;1.30;;
11596;SDS011;5854;48.072;16.286;2024-03-23T12:40:22;4.05;;;1.30;;
11596;SDS011;5854;48.072;16.286;2024-03-23T12:42:50;4.00;;;1.38;;
11596;SDS011;5854;48.072;16.286;2024-03-23T12:45:17;4.88;;;1.17;;
11596;SDS011;5854;48.072;16.286;2024-03-23T12:47:44;2.30;;;1.20;;
11596;SDS011;5854;48.072;16.286;2024-03-23T12:50:11;3.55;;;0.80;;
11596;SDS011;5854;48.072;16.286;2024-03-23T12:52:38;4.53;;;1.15;;
11596;SDS011;5854;48.072;16.286;2024-03-23T12:55:04;0.85;;;0.73;;
11596;SDS011;5854;48.072;16.286;2024-03-23T12:57:33;3.53;;;0.85;;
11596;SDS011;5854;48.072;16.286;2024-03-23T12:59:59;1.83;;;0.80;;
11596;SDS011;5854;48.072;16.286;2024-03-23T13:02:28;6.65;;;0.70;;
11596;SDS011;5854;48.072;16.286;2024-03-23T13:04:55;0.55;;;0.55;;
11596;SDS011;5854;48.072;16.286;2024-03-23T13:07:23;2.28;;;0.52;;
11596;SDS011;5854;48.072;16.286;2024-03-23T13:09:50;0.50;;;0.50;;
11596;SDS011;5854;48.072;16.286;2024-03-23T13:12:20;1.38;;;0.70;;
11596;SDS011;5854;48.072;16.286;2024-03-23T13:14:49;3.10;;;0.60;;
11596;SDS011;5854;48.072;16.286;2024-03-23T13:17:16;0.47;;;0.47;;
11596;SDS011;5854;48.072;16.286;2024-03-23T13:19:44;1.13;;;0.50;;
11596;SDS011;5854;48.072;16.286;2024-03-23T13:22:12;0.50;;;0.50;;
11596;SDS011;5854;48.072;16.286;2024-03-23T13:24:38;0.57;;;0.52;;
11596;SDS011;5854;48.072;16.286;2024-03-23T13:27:05;0.50;;;0.50;;
11596;SDS011;5854;48.072;16.286;2024-03-23T13:29:33;0.82;;;0.52;;
11596;SDS011;5854;48.072;16.286;2024-03-23T13:32:00;0.68;;;0.52;;
11596;SDS011;5854;48.072;16.286;2024-03-23T13:34:27;0.50;;;0.50;;
11596;SDS011;5854;48.072;16.286;2024-03-23T13:36:56;0.52;;;0.52;;
11596;SDS011;5854;48.072;16.286;2024-03-23T13:39:23;0.77;;;0.63;;
11596;SDS011;5854;48.072;16.286;2024-03-23T13:41:52;0.50;;;0.50;;
11596;SDS011;5854;48.072;16.286;2024-03-23T13:44:19;0.60;;;0.60;;
11596;SDS011;5854;48.072;16.286;2024-03-23T13:46:47;2.28;;;0.43;;
11596;SDS011;5854;48.072;16.286;2024-03-23T13:49:18;0.57;;;0.50;;
11596;SDS011;5854;48.072;16.286;2024-03-23T13:51:53;1.55;;;0.60;;
11596;SDS011;5854;48.072;16.286;2024-03-23T13:54:21;1.77;;;0.57;;
11596;SDS011;5854;48.072;16.286;2024-03-23T13:56:49;2.65;;;0.57;;
11596;SDS011;5854;48.072;16.286;2024-03-23T13:59:16;0.50;;;0.50;;
11596;SDS011;5854;48.072;16.286;2024-03-23T14:01:43;0.68;;;0.68;;
11596;SDS011;5854;48.072;16.286;2024-03-23T14:04:10;1.42;;;0.60;;
11596;SDS011;5854;48.072;16.286;2024-03-23T14:06:38;1.38;;;0.50;;
11596;SDS011;5854;48.072;16.286;2024-03-23T14:09:04;0.50;;;0.40;;
11596;SDS011;5854;48.072;16.286;2024-03-23T14:11:35;0.65;;;0.65;;
11596;SDS011;5854;48.072;16.286;2024-03-23T14:14:02;0.52;;;0.52;;
11596;SDS011;5854;48.072;16.286;2024-03-23T14:16:29;2.58;;;0.68;;
11596;SDS011;5854;48.072;16.286;2024-03-23T14:18:56;1.75;;;0.60;;
11596;SDS011;5854;48.072;16.286;2024-03-23T14:21:24;0.60;;;0.60;;
11596;SDS011;5854;48.072;16.286;2024-03-23T14:23:50;0.57;;;0.55;;
11596;SDS011;5854;48.072;16.286;2024-03-23T14:26:18;1.08;;;0.98;;
11596;SDS011;5854;48.072;16.286;2024-03-23T14:28:46;0.60;;;0.60;;
11596;SDS011;5854;48.072;16.286;2024-03-23T14:31:14;0.50;;;0.50;;
11596;SDS011;5854;48.072;16.286;2024-03-23T14:33:40;0.32;;;0.32;;
11596;SDS011;5854;48.072;16.286;2024-03-23T14:36:11;0.63;;;0.40;;
11596;SDS011;5854;48.072;16.286;2024-03-23T14:38:38;1.75;;;0.70;;
11596;SDS011;5854;48.072;16.286;2024-03-23T14:41:05;1.27;;;0.50;;
11596;SDS011;5854;48.072;16.286;2024-03-23T14:43:31;0.60;;;0.60;;
11596;SDS011;5854;48.072;16.286;2024-03-23T14:46:10;0.65;;;0.57;;
11596;SDS011;5854;48.072;16.286;2024-03-23T14:48:38;0.55;;;0.55;;
11596;SDS011;5854;48.072;16.286;2024-03-23T14:51:06;0.70;;;0.70;;
11596;SDS011;5854;48.072;16.286;2024-03-23T14:53:33;0.60;;;0.60;;
11596;SDS011;5854;48.072;16.286;2024-03-23T14:56:03;0.50;;;0.47;;
11596;SDS011;5854;48.072;16.286;2024-03-23T14:58:30;0.75;;;0.60;;
11596;SDS011;5854;48.072;16.286;2024-03-23T15:01:00;0.30;;;0.30;;
11596;SDS011;5854;48.072;16.286;2024-03-23T15:03:28;0.40;;;0.40;;
11596;SDS011;5854;48.072;16.286;2024-03-23T15:05:56;1.23;;;0.40;;
11596;SDS011;5854;48.072;16.286;2024-03-23T15:08:24;0.38;;;0.38;;
11596;SDS011;5854;48.072;16.286;2024-03-23T15:10:52;0.55;;;0.55;;
11596;SDS011;5854;48.072;16.286;2024-03-23T15:13:19;0.43;;;0.43;;
11596;SDS011;5854;48.072;16.286;2024-03-23T15:15:48;0.30;;;0.30;;
11596;SDS011;5854;48.072;16.286;2024-03-23T15:18:16;0.50;;;0.50;;
11596;SDS011;5854;48.072;16.286;2024-03-23T15:20:53;0.40;;;0.40;;
11596;SDS011;5854;48.072;16.286;2024-03-23T15:23:19;1.08;;;0.40;;
11596;SDS011;5854;48.072;16.286;2024-03-23T15:25:53;0.88;;;0.45;;
11596;SDS011;5854;48.072;16.286;2024-03-23T15:28:20;0.40;;;0.40;;
11596;SDS011;5854;48.072;16.286;2024-03-23T15:30:47;3.10;;;0.73;;
11596;SDS011;5854;48.072;16.286;2024-03-23T15:33:13;1.45;;;0.40;;
11596;SDS011;5854;48.072;16.286;2024-03-23T15:35:41;0.38;;;0.38;;
11596;SDS011;5854;48.072;16.286;2024-03-23T15:38:08;0.50;;;0.50;;
11596;SDS011;5854;48.072;16.286;2024-03-23T15:40:36;0.32;;;0.32;;
11596;SDS011;5854;48.072;16.286;2024-03-23T15:43:02;0.50;;;0.50;;
11596;SDS011;5854;48.072;16.286;2024-03-23T15:45:30;1.10;;;0.55;;
11596;SDS011;5854;48.072;16.286;2024-03-23T15:47:56;0.40;;;0.40;;